sensor_id;sensor_type;location;lat;lon;timestamp;P1;durP1;ratioP1;P2;durP2;ratioP2
20705;SDS011;10514;49.468;11.044;2023-04-24T00:01:02;4.82;;;1.65;;
20705;SDS011;10514;49.468;11.044;2023-04-24T00:03:28;2.80;;;1.98;;
20705;SDS011;10514;49.468;11.044;2023-04-24T00:05:54;4.82;;;1.67;;
20705;SDS011;10514;49.468;11.044;2023-04-24T00:08:20;5.53;;;2.10;;
20705;SDS011;10514;49.468;11.044;2023-04-24T00:10:46;2.92;;;1.67;;
20705;SDS011;10514;49.468;11.044;2023-04-24T00:13:11;3.15;;;1.83;;
20705;SDS011;10514;49.468;11.044;2023-04-24T00:15:37;4.40;;;1.70;;
20705;SDS011;10514;49.468;11.044;2023-04-24T00:18:04;3.92;;;1.95;;
20705;SDS011;10514;49.468;11.044;2023-04-24T00:20:30;2.50;;;1.80;;
20705;SDS011;10514;49.468;11.044;2023-04-24T00:22:57;6.30;;;2.10;;
20705;SDS011;10514;49.468;11.044;2023-04-24T00:25:23;3.22;;;1.90;;
20705;SDS011;10514;49.468;11.044;2023-04-24T00:27:49;6.72;;;2.17;;
20705;SDS011;10514;49.468;11.044;2023-04-24T00:30:15;3.47;;;2.20;;
20705;SDS011;10514;49.468;11.044;2023-04-24T00:32:41;3.38;;;1.63;;
20705;SDS011;10514;49.468;11.044;2023-04-24T00:35:07;2.70;;;1.85;;
20705;SDS011;10514;49.468;11.044;2023-04-24T00:37:33;1.80;;;1.65;;
20705;SDS011;10514;49.468;11.044;2023-04-24T00:39:59;3.05;;;1.70;;
20705;SDS011;10514;49.468;11.044;2023-04-24T00:42:25;3.28;;;1.70;;
20705;SDS011;10514;49.468;11.044;2023-04-24T00:44:51;3.28;;;1.58;;
20705;SDS011;10514;49.468;11.044;2023-04-24T00:47:17;2.38;;;1.80;;
20705;SDS011;10514;49.468;11.044;2023-04-24T00:49:44;2.15;;;1.58;;
20705;SDS011;10514;49.468;11.044;2023-04-24T00:52:10;2.70;;;1.52;;
20705;SDS011;10514;49.468;11.044;2023-04-24T00:54:37;2.05;;;1.45;;
20705;SDS011;10514;49.468;11.044;2023-04-24T00:57:03;2.65;;;1.70;;
20705;SDS011;10514;49.468;11.044;2023-04-24T00:59:29;3.33;;;1.45;;
20705;SDS011;10514;49.468;11.044;2023-04-24T01:01:56;2.05;;;1.60;;
20705;SDS011;10514;49.468;11.044;2023-04-24T01:04:22;4.75;;;1.23;;
20705;SDS011;10514;49.468;11.044;2023-04-24T01:06:48;2.28;;;1.23;;
20705;SDS011;10514;49.468;11.044;2023-04-24T01:09:15;5.22;;;1.63;;
20705;SDS011;10514;49.468;11.044;2023-04-24T01:11:42;3.05;;;1.38;;
20705;SDS011;10514;49.468;11.044;2023-04-24T01:14:08;2.92;;;1.20;;
20705;SDS011;10514;49.468;11.044;2023-04-24T01:16:35;3.80;;;1.30;;
20705;SDS011;10514;49.468;11.044;2023-04-24T01:19:03;3.28;;;1.33;;
20705;SDS011;10514;49.468;11.044;2023-04-24T01:21:29;1.92;;;1.25;;
20705;SDS011;10514;49.468;11.044;2023-04-24T01:23:58;2.00;;;1.00;;
20705;SDS011;10514;49.468;11.044;2023-04-24T01:26:23;2.70;;;1.33;;
20705;SDS011;10514;49.468;11.044;2023-04-24T01:28:50;2.03;;;1.35;;
20705;SDS011;10514;49.468;11.044;2023-04-24T01:31:17;1.73;;;1.27;;
20705;SDS011;10514;49.468;11.044;2023-04-24T01:33:43;1.73;;;1.02;;
20705;SDS011;10514;49.468;11.044;2023-04-24T01:36:09;1.48;;;1.20;;
20705;SDS011;10514;49.468;11.044;2023-04-24T01:38:36;1.48;;;1.20;;
20705;SDS011;10514;49.468;11.044;2023-04-24T01:41:02;2.97;;;1.00;;
20705;SDS011;10514;49.468;11.044;2023-04-24T01:43:28;1.10;;;0.88;;
20705;SDS011;10514;49.468;11.044;2023-04-24T01:45:54;2.10;;;1.13;;
20705;SDS011;10514;49.468;11.044;2023-04-24T01:48:20;2.03;;;1.20;;
20705;SDS011;10514;49.468;11.044;2023-04-24T01:50:46;1.25;;;0.82;;
20705;SDS011;10514;49.468;11.044;2023-04-24T01:53:12;3.45;;;0.90;;
20705;SDS011;10514;49.468;11.044;2023-04-24T01:55:38;2.15;;;1.05;;
20705;SDS011;10514;49.468;11.044;2023-04-24T01:58:04;2.05;;;1.10;;
20705;SDS011;10514;49.468;11.044;2023-04-24T02:00:30;1.80;;;0.90;;
20705;SDS011;10514;49.468;11.044;2023-04-24T02:02:56;2.05;;;1.00;;
20705;SDS011;10514;49.468;11.044;2023-04-24T02:05:21;4.00;;;1.10;;
20705;SDS011;10514;49.468;11.044;2023-04-24T02:07:47;2.60;;;1.17;;
20705;SDS011;10514;49.468;11.044;2023-04-24T02:10:13;1.55;;;0.90;;
20705;SDS011;10514;49.468;11.044;2023-04-24T02:12:39;1.42;;;0.98;;
20705;SDS011;10514;49.468;11.044;2023-04-24T02:15:05;1.35;;;0.80;;
20705;SDS011;10514;49.468;11.044;2023-04-24T02:17:31;2.05;;;0.90;;
20705;SDS011;10514;49.468;11.044;2023-04-24T02:19:57;2.15;;;0.90;;
20705;SDS011;10514;49.468;11.044;2023-04-24T02:22:23;1.70;;;0.80;;
20705;SDS011;10514;49.468;11.044;2023-04-24T02:24:49;2.70;;;1.20;;
20705;SDS011;10514;49.468;11.044;2023-04-24T02:27:15;1.10;;;0.98;;
20705;SDS011;10514;49.468;11.044;2023-04-24T02:29:40;1.05;;;0.82;;
20705;SDS011;10514;49.468;11.044;2023-04-24T02:32:06;1.23;;;1.00;;
20705;SDS011;10514;49.468;11.044;2023-04-24T02:34:36;2.38;;;1.00;;
20705;SDS011;10514;49.468;11.044;2023-04-24T02:37:02;0.93;;;0.90;;
20705;SDS011;10514;49.468;11.044;2023-04-24T02:39:28;2.78;;;0.90;;
20705;SDS011;10514;49.468;11.044;2023-04-24T02:41:54;1.67;;;1.02;;
20705;SDS011;10514;49.468;11.044;2023-04-24T02:44:20;2.15;;;0.90;;
20705;SDS011;10514;49.468;11.044;2023-04-24T02:46:46;2.75;;;1.40;;
20705;SDS011;10514;49.468;11.044;2023-04-24T02:49:12;2.67;;;1.00;;
20705;SDS011;10514;49.468;11.044;2023-04-24T02:51:38;1.65;;;1.02;;
20705;SDS011;10514;49.468;11.044;2023-04-24T02:54:06;2.55;;;1.00;;
20705;SDS011;10514;49.468;11.044;2023-04-24T02:56:32;1.70;;;1.13;;
20705;SDS011;10514;49.468;11.044;2023-04-24T02:58:58;2.22;;;1.15;;
20705;SDS011;10514;49.468;11.044;2023-04-24T03:01:24;2.50;;;0.85;;
20705;SDS011;10514;49.468;11.044;2023-04-24T03:03:50;1.25;;;0.80;;
20705;SDS011;10514;49.468;11.044;2023-04-24T03:06:16;1.35;;;1.17;;
20705;SDS011;10514;49.468;11.044;2023-04-24T03:08:42;2.42;;;0.90;;
20705;SDS011;10514;49.468;11.044;2023-04-24T03:11:08;1.65;;;1.00;;
20705;SDS011;10514;49.468;11.044;2023-04-24T03:13:34;1.75;;;1.13;;
20705;SDS011;10514;49.468;11.044;2023-04-24T03:16:00;1.67;;;1.10;;
20705;SDS011;10514;49.468;11.044;2023-04-24T03:18:26;1.42;;;1.08;;
20705;SDS011;10514;49.468;11.044;2023-04-24T03:20:52;1.33;;;0.95;;
20705;SDS011;10514;49.468;11.044;2023-04-24T03:23:18;2.80;;;0.80;;
20705;SDS011;10514;49.468;11.044;2023-04-24T03:25:44;1.10;;;1.00;;
20705;SDS011;10514;49.468;11.044;2023-04-24T03:28:10;1.95;;;1.08;;
20705;SDS011;10514;49.468;11.044;2023-04-24T03:30:36;1.45;;;1.00;;
20705;SDS011;10514;49.468;11.044;2023-04-24T03:33:02;1.27;;;0.90;;
20705;SDS011;10514;49.468;11.044;2023-04-24T03:35:28;4.28;;;1.13;;
20705;SDS011;10514;49.468;11.044;2023-04-24T03:37:54;1.15;;;0.90;;
20705;SDS011;10514;49.468;11.044;2023-04-24T03:40:20;1.50;;;1.10;;
20705;SDS011;10514;49.468;11.044;2023-04-24T03:42:46;1.40;;;1.10;;
20705;SDS011;10514;49.468;11.044;2023-04-24T03:45:12;1.50;;;1.25;;
20705;SDS011;10514;49.468;11.044;2023-04-24T03:47:38;2.40;;;0.98;;
20705;SDS011;10514;49.468;11.044;2023-04-24T03:50:04;11.75;;;1.42;;
20705;SDS011;10514;49.468;11.044;2023-04-24T03:52:30;2.35;;;1.10;;
20705;SDS011;10514;49.468;11.044;2023-04-24T03:54:56;3.58;;;1.10;;
20705;SDS011;10514;49.468;11.044;2023-04-24T03:57:22;1.40;;;1.23;;
20705;SDS011;10514;49.468;11.044;2023-04-24T03:59:48;3.50;;;1.10;;
20705;SDS011;10514;49.468;11.044;2023-04-24T04:02:13;2.28;;;1.27;;
20705;SDS011;10514;49.468;11.044;2023-04-24T04:04:39;2.40;;;1.17;;
20705;SDS011;10514;49.468;11.044;2023-04-24T04:07:05;2.22;;;1.02;;
20705;SDS011;10514;49.468;11.044;2023-04-24T04:09:32;1.40;;;1.13;;
20705;SDS011;10514;49.468;11.044;2023-04-24T04:11:58;3.85;;;1.08;;
20705;SDS011;10514;49.468;11.044;2023-04-24T04:14:25;4.53;;;1.83;;
20705;SDS011;10514;49.468;11.044;2023-04-24T04:16:51;2.05;;;1.42;;
20705;SDS011;10514;49.468;11.044;2023-04-24T04:19:17;2.45;;;1.45;;
20705;SDS011;10514;49.468;11.044;2023-04-24T04:21:43;5.03;;;1.27;;
20705;SDS011;10514;49.468;11.044;2023-04-24T04:24:10;1.92;;;1.40;;
20705;SDS011;10514;49.468;11.044;2023-04-24T04:26:36;3.08;;;1.50;;
20705;SDS011;10514;49.468;11.044;2023-04-24T04:29:03;3.63;;;1.40;;
20705;SDS011;10514;49.468;11.044;2023-04-24T04:31:28;1.92;;;1.23;;
20705;SDS011;10514;49.468;11.044;2023-04-24T04:33:55;4.70;;;1.23;;
20705;SDS011;10514;49.468;11.044;2023-04-24T04:36:21;4.03;;;1.55;;
20705;SDS011;10514;49.468;11.044;2023-04-24T04:38:48;4.15;;;1.60;;
20705;SDS011;10514;49.468;11.044;2023-04-24T04:41:14;5.75;;;1.65;;
20705;SDS011;10514;49.468;11.044;2023-04-24T04:43:41;2.70;;;1.60;;
20705;SDS011;10514;49.468;11.044;2023-04-24T04:46:07;2.78;;;1.75;;
20705;SDS011;10514;49.468;11.044;2023-04-24T04:48:35;3.78;;;1.33;;
20705;SDS011;10514;49.468;11.044;2023-04-24T04:51:01;2.88;;;1.50;;
20705;SDS011;10514;49.468;11.044;2023-04-24T04:53:26;2.25;;;1.38;;
20705;SDS011;10514;49.468;11.044;2023-04-24T04:55:52;3.42;;;1.80;;
20705;SDS011;10514;49.468;11.044;2023-04-24T04:58:18;2.78;;;1.63;;
20705;SDS011;10514;49.468;11.044;2023-04-24T05:00:44;4.82;;;1.60;;
20705;SDS011;10514;49.468;11.044;2023-04-24T05:03:11;2.28;;;1.67;;
20705;SDS011;10514;49.468;11.044;2023-04-24T05:05:37;3.80;;;1.88;;
20705;SDS011;10514;49.468;11.044;2023-04-24T05:08:05;3.85;;;1.42;;
20705;SDS011;10514;49.468;11.044;2023-04-24T05:10:32;4.60;;;1.70;;
20705;SDS011;10514;49.468;11.044;2023-04-24T05:12:58;3.78;;;1.90;;
20705;SDS011;10514;49.468;11.044;2023-04-24T05:15:24;2.67;;;1.70;;
20705;SDS011;10514;49.468;11.044;2023-04-24T05:17:49;3.25;;;2.00;;
20705;SDS011;10514;49.468;11.044;2023-04-24T05:20:15;3.10;;;1.52;;
20705;SDS011;10514;49.468;11.044;2023-04-24T05:22:41;3.50;;;1.80;;
20705;SDS011;10514;49.468;11.044;2023-04-24T05:25:08;5.38;;;1.63;;
20705;SDS011;10514;49.468;11.044;2023-04-24T05:27:33;7.68;;;1.88;;
20705;SDS011;10514;49.468;11.044;2023-04-24T05:30:00;2.50;;;1.58;;
20705;SDS011;10514;49.468;11.044;2023-04-24T05:32:26;3.35;;;1.70;;
20705;SDS011;10514;49.468;11.044;2023-04-24T05:34:52;3.13;;;1.73;;
20705;SDS011;10514;49.468;11.044;2023-04-24T05:37:18;5.38;;;1.83;;
20705;SDS011;10514;49.468;11.044;2023-04-24T05:39:43;2.90;;;1.65;;
20705;SDS011;10514;49.468;11.044;2023-04-24T05:42:09;2.42;;;1.60;;
20705;SDS011;10514;49.468;11.044;2023-04-24T05:44:35;2.95;;;1.63;;
20705;SDS011;10514;49.468;11.044;2023-04-24T05:47:02;3.17;;;1.65;;
20705;SDS011;10514;49.468;11.044;2023-04-24T05:49:28;3.15;;;1.63;;
20705;SDS011;10514;49.468;11.044;2023-04-24T05:51:54;3.17;;;1.52;;
20705;SDS011;10514;49.468;11.044;2023-04-24T05:54:20;5.28;;;2.15;;
20705;SDS011;10514;49.468;11.044;2023-04-24T05:56:46;6.68;;;1.88;;
20705;SDS011;10514;49.468;11.044;2023-04-24T05:59:12;3.30;;;2.08;;
20705;SDS011;10514;49.468;11.044;2023-04-24T06:01:38;6.97;;;1.70;;
20705;SDS011;10514;49.468;11.044;2023-04-24T06:04:04;6.65;;;1.98;;
20705;SDS011;10514;49.468;11.044;2023-04-24T06:06:31;3.95;;;1.70;;
20705;SDS011;10514;49.468;11.044;2023-04-24T06:08:57;2.00;;;1.52;;
20705;SDS011;10514;49.468;11.044;2023-04-24T06:11:24;5.07;;;1.75;;
20705;SDS011;10514;49.468;11.044;2023-04-24T06:13:50;3.25;;;1.75;;
20705;SDS011;10514;49.468;11.044;2023-04-24T06:16:17;4.63;;;1.98;;
20705;SDS011;10514;49.468;11.044;2023-04-24T06:18:42;4.07;;;1.40;;
20705;SDS011;10514;49.468;11.044;2023-04-24T06:21:09;2.25;;;1.40;;
20705;SDS011;10514;49.468;11.044;2023-04-24T06:23:35;2.92;;;1.70;;
20705;SDS011;10514;49.468;11.044;2023-04-24T06:26:01;2.85;;;1.33;;
20705;SDS011;10514;49.468;11.044;2023-04-24T06:28:27;5.90;;;1.42;;
20705;SDS011;10514;49.468;11.044;2023-04-24T06:30:53;6.03;;;1.67;;
20705;SDS011;10514;49.468;11.044;2023-04-24T06:33:19;3.55;;;1.55;;
20705;SDS011;10514;49.468;11.044;2023-04-24T06:35:45;3.00;;;1.40;;
20705;SDS011;10514;49.468;11.044;2023-04-24T06:38:11;3.60;;;1.92;;
20705;SDS011;10514;49.468;11.044;2023-04-24T06:40:37;3.15;;;1.58;;
20705;SDS011;10514;49.468;11.044;2023-04-24T06:43:02;2.00;;;1.42;;
20705;SDS011;10514;49.468;11.044;2023-04-24T06:45:29;1.77;;;0.98;;
20705;SDS011;10514;49.468;11.044;2023-04-24T06:47:55;2.45;;;0.95;;
20705;SDS011;10514;49.468;11.044;2023-04-24T06:50:21;2.70;;;1.00;;
20705;SDS011;10514;49.468;11.044;2023-04-24T06:52:47;1.13;;;0.80;;
20705;SDS011;10514;49.468;11.044;2023-04-24T06:55:13;1.92;;;1.20;;
20705;SDS011;10514;49.468;11.044;2023-04-24T06:57:41;4.70;;;1.00;;
20705;SDS011;10514;49.468;11.044;2023-04-24T07:00:07;0.88;;;0.80;;
20705;SDS011;10514;49.468;11.044;2023-04-24T07:02:34;5.65;;;0.82;;
20705;SDS011;10514;49.468;11.044;2023-04-24T07:05:00;1.48;;;0.95;;
20705;SDS011;10514;49.468;11.044;2023-04-24T07:07:26;1.70;;;0.90;;
20705;SDS011;10514;49.468;11.044;2023-04-24T07:09:52;3.42;;;0.93;;
20705;SDS011;10514;49.468;11.044;2023-04-24T07:12:19;1.73;;;0.90;;
20705;SDS011;10514;49.468;11.044;2023-04-24T07:14:46;1.20;;;0.75;;
20705;SDS011;10514;49.468;11.044;2023-04-24T07:17:12;1.20;;;0.90;;
20705;SDS011;10514;49.468;11.044;2023-04-24T07:19:39;1.67;;;0.55;;
20705;SDS011;10514;49.468;11.044;2023-04-24T07:22:05;2.13;;;0.90;;
20705;SDS011;10514;49.468;11.044;2023-04-24T07:24:31;1.70;;;1.10;;
20705;SDS011;10514;49.468;11.044;2023-04-24T07:26:59;3.28;;;1.00;;
20705;SDS011;10514;49.468;11.044;2023-04-24T07:29:28;1.75;;;0.98;;
20705;SDS011;10514;49.468;11.044;2023-04-24T07:31:54;0.73;;;0.73;;
20705;SDS011;10514;49.468;11.044;2023-04-24T07:34:21;3.20;;;1.02;;
20705;SDS011;10514;49.468;11.044;2023-04-24T07:36:47;0.98;;;0.73;;
20705;SDS011;10514;49.468;11.044;2023-04-24T07:39:13;1.38;;;0.98;;
20705;SDS011;10514;49.468;11.044;2023-04-24T07:41:38;1.30;;;1.00;;
20705;SDS011;10514;49.468;11.044;2023-04-24T07:44:05;3.58;;;1.30;;
20705;SDS011;10514;49.468;11.044;2023-04-24T07:46:31;1.83;;;1.20;;
20705;SDS011;10514;49.468;11.044;2023-04-24T07:48:57;2.90;;;1.27;;
20705;SDS011;10514;49.468;11.044;2023-04-24T07:51:25;2.53;;;1.30;;
20705;SDS011;10514;49.468;11.044;2023-04-24T07:53:55;1.92;;;1.27;;
20705;SDS011;10514;49.468;11.044;2023-04-24T07:56:21;2.70;;;1.10;;
20705;SDS011;10514;49.468;11.044;2023-04-24T07:58:47;2.72;;;1.30;;
20705;SDS011;10514;49.468;11.044;2023-04-24T08:01:13;1.80;;;1.05;;
20705;SDS011;10514;49.468;11.044;2023-04-24T08:03:39;1.33;;;1.10;;
20705;SDS011;10514;49.468;11.044;2023-04-24T08:06:05;2.70;;;1.10;;
20705;SDS011;10514;49.468;11.044;2023-04-24T08:08:31;1.63;;;1.17;;
20705;SDS011;10514;49.468;11.044;2023-04-24T08:10:57;2.13;;;1.02;;
20705;SDS011;10514;49.468;11.044;2023-04-24T08:13:23;2.15;;;1.17;;
20705;SDS011;10514;49.468;11.044;2023-04-24T08:15:49;2.70;;;1.00;;
20705;SDS011;10514;49.468;11.044;2023-04-24T08:18:15;1.80;;;1.20;;
20705;SDS011;10514;49.468;11.044;2023-04-24T08:20:41;4.95;;;1.30;;
20705;SDS011;10514;49.468;11.044;2023-04-24T08:23:07;1.35;;;1.00;;
20705;SDS011;10514;49.468;11.044;2023-04-24T08:25:33;5.40;;;1.50;;
20705;SDS011;10514;49.468;11.044;2023-04-24T08:28:01;1.83;;;1.13;;
20705;SDS011;10514;49.468;11.044;2023-04-24T08:30:28;2.92;;;1.65;;
20705;SDS011;10514;49.468;11.044;2023-04-24T08:32:54;3.30;;;1.40;;
20705;SDS011;10514;49.468;11.044;2023-04-24T08:35:20;1.73;;;1.27;;
20705;SDS011;10514;49.468;11.044;2023-04-24T08:37:46;2.80;;;1.58;;
20705;SDS011;10514;49.468;11.044;2023-04-24T08:40:13;2.33;;;1.77;;
20705;SDS011;10514;49.468;11.044;2023-04-24T08:42:40;2.63;;;1.70;;
20705;SDS011;10514;49.468;11.044;2023-04-24T08:45:07;2.45;;;1.23;;
20705;SDS011;10514;49.468;11.044;2023-04-24T08:47:34;4.57;;;1.52;;
20705;SDS011;10514;49.468;11.044;2023-04-24T08:50:02;2.05;;;1.42;;
20705;SDS011;10514;49.468;11.044;2023-04-24T08:52:28;4.57;;;1.20;;
20705;SDS011;10514;49.468;11.044;2023-04-24T08:54:54;3.28;;;1.20;;
20705;SDS011;10514;49.468;11.044;2023-04-24T08:57:20;2.28;;;1.48;;
20705;SDS011;10514;49.468;11.044;2023-04-24T08:59:47;3.30;;;1.40;;
20705;SDS011;10514;49.468;11.044;2023-04-24T09:02:13;2.38;;;1.40;;
20705;SDS011;10514;49.468;11.044;2023-04-24T09:04:40;3.30;;;1.65;;
20705;SDS011;10514;49.468;11.044;2023-04-24T09:07:06;4.00;;;1.50;;
20705;SDS011;10514;49.468;11.044;2023-04-24T09:09:33;2.60;;;1.77;;
20705;SDS011;10514;49.468;11.044;2023-04-24T09:12:00;2.00;;;1.45;;
20705;SDS011;10514;49.468;11.044;2023-04-24T09:14:27;2.08;;;1.50;;
20705;SDS011;10514;49.468;11.044;2023-04-24T09:16:53;2.63;;;1.48;;
20705;SDS011;10514;49.468;11.044;2023-04-24T09:19:19;2.17;;;1.33;;
20705;SDS011;10514;49.468;11.044;2023-04-24T09:21:46;2.92;;;1.42;;
20705;SDS011;10514;49.468;11.044;2023-04-24T09:24:16;2.70;;;1.10;;
20705;SDS011;10514;49.468;11.044;2023-04-24T09:26:43;2.45;;;0.95;;
20705;SDS011;10514;49.468;11.044;2023-04-24T09:29:13;3.25;;;1.40;;
20705;SDS011;10514;49.468;11.044;2023-04-24T09:31:40;2.00;;;1.38;;
20705;SDS011;10514;49.468;11.044;2023-04-24T09:34:06;2.78;;;1.20;;
20705;SDS011;10514;49.468;11.044;2023-04-24T09:36:33;1.88;;;1.27;;
20705;SDS011;10514;49.468;11.044;2023-04-24T09:39:02;1.45;;;1.13;;
20705;SDS011;10514;49.468;11.044;2023-04-24T09:41:29;3.28;;;1.40;;
20705;SDS011;10514;49.468;11.044;2023-04-24T09:43:55;2.83;;;1.35;;
20705;SDS011;10514;49.468;11.044;2023-04-24T09:46:28;3.17;;;1.30;;
20705;SDS011;10514;49.468;11.044;2023-04-24T09:48:54;1.05;;;0.80;;
20705;SDS011;10514;49.468;11.044;2023-04-24T09:51:24;2.30;;;0.90;;
20705;SDS011;10514;49.468;11.044;2023-04-24T09:53:58;3.33;;;0.98;;
20705;SDS011;10514;49.468;11.044;2023-04-24T09:56:24;1.75;;;1.00;;
20705;SDS011;10514;49.468;11.044;2023-04-24T09:58:51;2.13;;;0.90;;
20705;SDS011;10514;49.468;11.044;2023-04-24T10:01:28;1.13;;;0.88;;
20705;SDS011;10514;49.468;11.044;2023-04-24T10:03:55;1.10;;;0.68;;
20705;SDS011;10514;49.468;11.044;2023-04-24T10:06:21;0.75;;;0.75;;
20705;SDS011;10514;49.468;11.044;2023-04-24T10:08:47;2.53;;;1.20;;
20705;SDS011;10514;49.468;11.044;2023-04-24T10:11:13;2.88;;;1.00;;
20705;SDS011;10514;49.468;11.044;2023-04-24T10:13:40;0.70;;;0.60;;
20705;SDS011;10514;49.468;11.044;2023-04-24T10:16:06;1.75;;;0.80;;
20705;SDS011;10514;49.468;11.044;2023-04-24T10:18:32;1.75;;;1.40;;
20705;SDS011;10514;49.468;11.044;2023-04-24T10:20:58;0.98;;;0.70;;
20705;SDS011;10514;49.468;11.044;2023-04-24T10:23:25;0.50;;;0.47;;
20705;SDS011;10514;49.468;11.044;2023-04-24T10:25:52;2.20;;;0.57;;
20705;SDS011;10514;49.468;11.044;2023-04-24T10:28:18;1.63;;;0.70;;
20705;SDS011;10514;49.468;11.044;2023-04-24T10:30:44;0.70;;;0.68;;
20705;SDS011;10514;49.468;11.044;2023-04-24T10:33:11;2.75;;;0.90;;
20705;SDS011;10514;49.468;11.044;2023-04-24T10:35:40;1.40;;;0.45;;
20705;SDS011;10514;49.468;11.044;2023-04-24T10:38:14;1.08;;;0.75;;
20705;SDS011;10514;49.468;11.044;2023-04-24T10:40:43;1.00;;;0.50;;
20705;SDS011;10514;49.468;11.044;2023-04-24T10:43:09;1.42;;;0.60;;
20705;SDS011;10514;49.468;11.044;2023-04-24T10:45:36;1.48;;;0.60;;
20705;SDS011;10514;49.468;11.044;2023-04-24T10:48:03;0.50;;;0.50;;
20705;SDS011;10514;49.468;11.044;2023-04-24T10:53:35;0.77;;;0.52;;
20705;SDS011;10514;49.468;11.044;2023-04-24T10:56:08;1.63;;;0.80;;
20705;SDS011;10514;49.468;11.044;2023-04-24T11:01:05;1.33;;;0.65;;
20705;SDS011;10514;49.468;11.044;2023-04-24T11:03:32;0.77;;;0.50;;
20705;SDS011;10514;49.468;11.044;2023-04-24T11:06:00;0.65;;;0.50;;
20705;SDS011;10514;49.468;11.044;2023-04-24T11:08:45;1.30;;;0.80;;
20705;SDS011;10514;49.468;11.044;2023-04-24T11:11:16;1.83;;;0.70;;
20705;SDS011;10514;49.468;11.044;2023-04-24T11:19:03;1.52;;;0.80;;
20705;SDS011;10514;49.468;11.044;2023-04-24T11:21:46;4.28;;;0.80;;
20705;SDS011;10514;49.468;11.044;2023-04-24T11:24:25;0.80;;;0.80;;
20705;SDS011;10514;49.468;11.044;2023-04-24T11:26:53;1.48;;;0.90;;
20705;SDS011;10514;49.468;11.044;2023-04-24T11:29:20;2.95;;;1.25;;
20705;SDS011;10514;49.468;11.044;2023-04-24T11:31:46;1.83;;;0.90;;
20705;SDS011;10514;49.468;11.044;2023-04-24T11:34:14;1.42;;;0.90;;
20705;SDS011;10514;49.468;11.044;2023-04-24T11:36:45;2.13;;;1.23;;
20705;SDS011;10514;49.468;11.044;2023-04-24T11:39:11;1.20;;;1.00;;
20705;SDS011;10514;49.468;11.044;2023-04-24T11:41:37;1.20;;;1.00;;
20705;SDS011;10514;49.468;11.044;2023-04-24T11:44:05;2.60;;;0.90;;
20705;SDS011;10514;49.468;11.044;2023-04-24T11:46:31;1.88;;;0.90;;
20705;SDS011;10514;49.468;11.044;2023-04-24T11:48:57;1.00;;;0.90;;
20705;SDS011;10514;49.468;11.044;2023-04-24T11:51:24;1.35;;;1.02;;
20705;SDS011;10514;49.468;11.044;2023-04-24T11:53:53;2.35;;;0.80;;
20705;SDS011;10514;49.468;11.044;2023-04-24T11:56:21;1.08;;;0.98;;
20705;SDS011;10514;49.468;11.044;2023-04-24T11:58:47;2.90;;;0.82;;
20705;SDS011;10514;49.468;11.044;2023-04-24T12:01:13;1.25;;;0.70;;
20705;SDS011;10514;49.468;11.044;2023-04-24T12:03:40;1.55;;;1.10;;
20705;SDS011;10514;49.468;11.044;2023-04-24T12:06:09;1.77;;;1.10;;
20705;SDS011;10514;49.468;11.044;2023-04-24T12:08:36;1.92;;;0.93;;
20705;SDS011;10514;49.468;11.044;2023-04-24T12:11:02;1.33;;;1.00;;
20705;SDS011;10514;49.468;11.044;2023-04-24T12:13:29;2.42;;;0.95;;
20705;SDS011;10514;49.468;11.044;2023-04-24T12:15:59;2.38;;;1.00;;
20705;SDS011;10514;49.468;11.044;2023-04-24T12:18:25;3.53;;;1.17;;
20705;SDS011;10514;49.468;11.044;2023-04-24T12:20:51;1.67;;;1.00;;
20705;SDS011;10514;49.468;11.044;2023-04-24T12:23:32;2.42;;;0.90;;
20705;SDS011;10514;49.468;11.044;2023-04-24T12:26:00;3.38;;;1.17;;
20705;SDS011;10514;49.468;11.044;2023-04-24T12:28:33;1.45;;;1.17;;
20705;SDS011;10514;49.468;11.044;2023-04-24T12:31:01;2.80;;;1.08;;
20705;SDS011;10514;49.468;11.044;2023-04-24T12:33:27;2.97;;;0.80;;
20705;SDS011;10514;49.468;11.044;2023-04-24T12:35:53;1.30;;;1.00;;
20705;SDS011;10514;49.468;11.044;2023-04-24T12:38:25;1.45;;;1.10;;
20705;SDS011;10514;49.468;11.044;2023-04-24T12:41:07;0.95;;;0.80;;
20705;SDS011;10514;49.468;11.044;2023-04-24T12:43:33;2.35;;;1.00;;
20705;SDS011;10514;49.468;11.044;2023-04-24T12:45:59;3.13;;;1.00;;
20705;SDS011;10514;49.468;11.044;2023-04-24T12:48:26;1.20;;;0.90;;
20705;SDS011;10514;49.468;11.044;2023-04-24T12:50:52;2.78;;;1.00;;
20705;SDS011;10514;49.468;11.044;2023-04-24T12:53:18;2.72;;;0.95;;
20705;SDS011;10514;49.468;11.044;2023-04-24T12:55:44;1.17;;;0.98;;
20705;SDS011;10514;49.468;11.044;2023-04-24T12:58:11;3.65;;;0.95;;
20705;SDS011;10514;49.468;11.044;2023-04-24T13:00:38;2.00;;;0.90;;
20705;SDS011;10514;49.468;11.044;2023-04-24T13:03:04;0.98;;;0.80;;
20705;SDS011;10514;49.468;11.044;2023-04-24T13:05:30;1.20;;;0.70;;
20705;SDS011;10514;49.468;11.044;2023-04-24T13:07:56;1.42;;;0.82;;
20705;SDS011;10514;49.468;11.044;2023-04-24T13:10:22;1.33;;;0.73;;
20705;SDS011;10514;49.468;11.044;2023-04-24T13:12:48;0.50;;;0.50;;
20705;SDS011;10514;49.468;11.044;2023-04-24T13:15:14;1.30;;;0.88;;
20705;SDS011;10514;49.468;11.044;2023-04-24T13:17:40;4.20;;;0.90;;
20705;SDS011;10514;49.468;11.044;2023-04-24T13:20:06;2.08;;;1.02;;
20705;SDS011;10514;49.468;11.044;2023-04-24T13:22:32;0.88;;;0.80;;
20705;SDS011;10514;49.468;11.044;2023-04-24T13:24:58;5.65;;;1.23;;
20705;SDS011;10514;49.468;11.044;2023-04-24T13:27:24;2.30;;;0.90;;
20705;SDS011;10514;49.468;11.044;2023-04-24T13:29:50;3.17;;;1.20;;
20705;SDS011;10514;49.468;11.044;2023-04-24T13:32:16;2.00;;;0.90;;
20705;SDS011;10514;49.468;11.044;2023-04-24T13:34:42;1.40;;;1.00;;
20705;SDS011;10514;49.468;11.044;2023-04-24T13:37:08;1.85;;;1.00;;
20705;SDS011;10514;49.468;11.044;2023-04-24T13:39:34;2.47;;;0.93;;
20705;SDS011;10514;49.468;11.044;2023-04-24T13:42:00;2.92;;;1.00;;
20705;SDS011;10514;49.468;11.044;2023-04-24T13:44:26;1.63;;;0.95;;
20705;SDS011;10514;49.468;11.044;2023-04-24T13:46:52;3.65;;;1.15;;
20705;SDS011;10514;49.468;11.044;2023-04-24T13:49:19;2.38;;;0.98;;
20705;SDS011;10514;49.468;11.044;2023-04-24T13:51:46;1.98;;;1.10;;
20705;SDS011;10514;49.468;11.044;2023-04-24T13:54:12;1.83;;;1.27;;
20705;SDS011;10514;49.468;11.044;2023-04-24T13:56:39;1.50;;;1.15;;
20705;SDS011;10514;49.468;11.044;2023-04-24T13:59:05;2.30;;;1.30;;
20705;SDS011;10514;49.468;11.044;2023-04-24T14:01:31;1.92;;;1.38;;
20705;SDS011;10514;49.468;11.044;2023-04-24T14:03:58;3.03;;;1.40;;
20705;SDS011;10514;49.468;11.044;2023-04-24T14:06:24;1.85;;;1.13;;
20705;SDS011;10514;49.468;11.044;2023-04-24T14:08:51;1.75;;;1.38;;
20705;SDS011;10514;49.468;11.044;2023-04-24T14:11:17;2.35;;;1.50;;
20705;SDS011;10514;49.468;11.044;2023-04-24T14:13:43;8.07;;;1.75;;
20705;SDS011;10514;49.468;11.044;2023-04-24T14:16:10;3.08;;;1.30;;
20705;SDS011;10514;49.468;11.044;2023-04-24T14:18:35;1.55;;;1.27;;
20705;SDS011;10514;49.468;11.044;2023-04-24T14:21:02;2.70;;;1.58;;
20705;SDS011;10514;49.468;11.044;2023-04-24T14:23:28;1.77;;;1.27;;
20705;SDS011;10514;49.468;11.044;2023-04-24T14:25:54;2.00;;;1.15;;
20705;SDS011;10514;49.468;11.044;2023-04-24T14:28:20;2.45;;;1.40;;
20705;SDS011;10514;49.468;11.044;2023-04-24T14:30:47;3.22;;;1.50;;
20705;SDS011;10514;49.468;11.044;2023-04-24T14:33:13;5.30;;;1.25;;
20705;SDS011;10514;49.468;11.044;2023-04-24T14:35:39;1.30;;;1.20;;
20705;SDS011;10514;49.468;11.044;2023-04-24T14:38:07;2.10;;;1.35;;
20705;SDS011;10514;49.468;11.044;2023-04-24T14:40:33;1.48;;;1.23;;